CST,Max TemperatureF,Mean TemperatureF,Min TemperatureF,Max Dew PointF,MeanDew PointF,Min DewpointF,Max Humidity, Mean Humidity, Min Humidity, Max Sea Level PressureIn, Mean Sea Level PressureIn, Min Sea Level PressureIn, Max VisibilityMiles, Mean VisibilityMiles, Min VisibilityMiles, Max Wind SpeedMPH, Mean Wind SpeedMPH, Max Gust SpeedMPH,PrecipitationIn, CloudCover, Events, WindDirDegrees
2013-1-1,15,6,-4,12,1,-9,93,77,67,30.24,30.17,30.02,10,9,2,16,8,,0.00,5,,235
2013-1-2,30,19,8,28,18,5,93,89,80,30.14,30.01,29.95,10,8,2,17,13,,0.00,6,Rain-Snow,265
2013-1-3,28,17,6,27,11,1,93,84,73,30.33,30.25,30.13,10,10,4,22,15,29,0.00,4,Snow,285
2013-1-4,24,19,14,18,13,10,86,79,69,30.18,30.12,30.06,10,10,10,21,16,24,0.00,0,,236
2013-1-5,24,19,14,21,15,10,86,81,73,30.10,29.98,29.89,10,9,2,25,16,34,0.00,2,Snow,256
2013-1-6,23,14,8,19,12,5,93,85,79,30.24,30.16,30.04,10,10,9,21,14,26,0.00,0,,244
2013-1-7,32,26,21,27,24,18,100,83,74,30.04,29.96,29.91,10,10,7,33,17,36,0.00,0,,232
2013-1-8,33,24,15,30,24,14,100,91,81,30.05,29.88,29.75,10,8,0,23,10,29,0.00,0,Fog,198
2013-1-9,37,30,23,32,27,21,100,89,75,30.37,30.26,30.05,10,10,10,18,12,25,0.00,0,,225
2013-1-10,35,32,28,34,29,23,100,87,69,30.30,29.98,29.66,10,7,0,20,13,26,0.01,5,Fog-Rain,150
2013-1-11,41,36,32,41,36,32,100,100,100,29.65,29.49,29.36,9,1,0,22,10,17,0.00,8,Fog,182
2013-1-12,,,,,,,,,,,,,,,,,,,,,,
2013-1-13,,,,,,,,,,,,,,,,,,,,,,
2013-1-14,,,,,,,,,,,,,,,,,,,,,,
2013-1-15,32,26,21,18,16,14,86,69,51,30.14,30.04,29.92,10,10,10,23,17,28,0.00,0,,211
2013-1-16,44,32,17,34,24,5,93,77,54,30.21,29.93,29.79,10,10,6,26,17,32,0.00,4,Snow,285
2013-1-17,35,24,14,28,14,-2,100,69,49,30.40,30.32,30.21,10,9,3,16,9,,0.00,4,,272
2013-1-18,46,35,24,34,30,25,100,79,57,30.20,29.93,29.81,10,10,6,28,16,34,0.00,0,,222
2013-1-19,46,28,10,32,24,1,93,73,55,30.28,29.96,29.77,10,10,10,39,16,46,0.00,2,,293
2013-1-20,10,4,-2,5,1,-6,85,76,67,30.38,30.32,30.27,10,8,0,20,13,23,0.00,5,Rain-Snow,314
2013-1-21,3,-3,-9,-8,-11,-17,78,68,60,30.36,30.32,30.29,10,10,2,26,16,33,0.00,1,,298
2013-1-22,14,7,0,9,-1,-8,79,67,57,30.34,30.27,30.17,10,10,10,15,7,,0.00,8,Snow,238
2013-1-23,21,10,-2,14,4,-13,86,72,55,30.50,30.25,30.08,10,10,8,24,14,32,0.00,2,Snow,326
2013-1-24,15,6,-4,5,-6,-13,71,60,53,30.54,30.36,30.11,10,10,10,21,13,26,0.00,2,,117
2013-1-25,32,20,8,23,11,0,86,72,58,30.24,30.11,30.02,10,10,10,23,14,32,0.00,2,,299
2013-1-26,39,22,5,21,9,-2,79,64,45,30.25,30.14,30.01,10,10,10,20,12,25,0.00,4,,127
2013-1-27,32,30,28,32,29,19,100,91,60,29.99,29.81,29.71,10,3,0,21,16,28,0.02,7,Fog-Rain,144
2013-1-28,37,34,32,37,34,32,100,100,100,29.84,29.74,29.53,0,0,0,15,7,18,0.00,8,Fog,115
2013-1-29,35,29,23,36,30,23,100,96,86,29.68,29.61,29.52,10,7,0,26,13,32,0.00,8,Fog,345
2013-1-30,23,14,6,21,12,1,93,80,68,29.83,29.72,29.63,10,8,2,30,25,39,0.00,8,Rain-Snow,324
2013-1-31,6,0,-5,1,-8,-15,79,67,56,30.30,30.08,29.83,10,9,4,31,22,38,0.00,3,Snow,307